Terminal Aerodrome Forecast
Issued by NWS

Home | Current Version | Previous Version | Text Only | Print | Product List | Glossary On
Versions: 1 2 3 4 5 6 7 8 9 10 11 12 13 14 15 16 17 18 19 20
000
FTUS41 KBGM 212349
TAFITH
TAF
KITH 212349Z 2200/2224 10005KT P6SM SCT005 BKN060
      TEMPO 2209/2213 1SM BR OVC005
     FM221500 13005KT P6SM OVC012
     FM221800 12007KT P6SM BKN028=

USA.gov is the U.S. government's official web portal to all federal, state and local government web resources and services.